Arthurdale, West Virginia
Current Conditions -  °F | °C
As of 8:53 PM on Tuesday 21 Oct 2014 (Local Time) from KMGW Reporting Station
Overcast Overcast  
Wind Chill: 50°   Ceiling: 1700
Heat Index: 50°   Visibility: 10mi
Dew Point: 44°   Wind: 3mph
Humidity: 80%   Direction: NA
Pressure: 30.01"   Gusts: NA
Location:  39.49°N, 79.82°W
Report Text: KMGW 220053Z VRB03KT 10SM OVC017 10/07 A3001 RMK AO2 SLP165 T01000067
Loading
Personal Weather Stations






























Interactive Weather Map
Tropical Storm Tracking
New forecast layout! Learn more

10-Day Weather Forecast

Advertisements
Track Severe Weather on mobile